Time;durP1;ratioP1;P1;durP2;ratioP2;P2;SDS_P1;SDS_P2;PMS_P1;PMS_P2;Temp;Humidity;BMP_temperature;BMP_pressure;BME280_temperature;BME280_humidity;BME280_pressure;Samples;Min_cycle;Max_cycle;Signal;HPM_P1;HPM_P2
2021/06/27 00:00:14;;;;;;;18.33;15.93;;;22.40;81.30;;;;;;5077004;28;20043;-88
2021/06/27 00:02:40;;;;;;;17.50;15.70;;;22.30;81.80;;;;;;5096489;28;20024;-88
2021/06/27 00:05:07;;;;;;;20.23;17.45;;;22.30;81.80;;;;;;5061938;28;20511;-88
2021/06/27 00:07:33;;;;;;;17.48;15.77;;;22.30;81.90;;;;;;5078484;28;20123;-88
2021/06/27 00:09:59;;;;;;;18.85;16.85;;;22.30;82.20;;;;;;5078264;28;20039;-89
2021/06/27 00:12:24;;;;;;;18.52;16.23;;;22.20;82.10;;;;;;5070212;28;20036;-89
2021/06/27 00:14:51;;;;;;;19.30;17.38;;;22.30;81.80;;;;;;5059821;28;20074;-88
2021/06/27 00:17:17;;;;;;;18.35;16.25;;;22.20;82.00;;;;;;5063189;28;20461;-88
2021/06/27 00:19:43;;;;;;;17.83;15.95;;;22.20;82.60;;;;;;5055528;28;20115;-89
2021/06/27 00:22:09;;;;;;;18.77;16.77;;;22.20;82.70;;;;;;5042943;28;20582;-88
2021/06/27 00:24:34;;;;;;;19.65;16.88;;;22.10;82.80;;;;;;5057223;28;20184;-88
2021/06/27 00:27:00;;;;;;;18.80;16.52;;;22.10;82.60;;;;;;5063131;28;20025;-89
2021/06/27 00:29:26;;;;;;;18.20;16.30;;;22.10;82.70;;;;;;5118105;28;20044;-88
2021/06/27 00:31:52;;;;;;;18.95;16.95;;;22.10;83.00;;;;;;5088289;28;20033;-88
2021/06/27 00:34:17;;;;;;;17.30;15.50;;;22.10;83.20;;;;;;5067382;28;20036;-88
2021/06/27 00:36:43;;;;;;;18.25;15.60;;;22.00;83.50;;;;;;5049005;28;20428;-88
2021/06/27 00:39:08;;;;;;;18.77;16.80;;;22.00;83.50;;;;;;5076787;28;20080;-88
2021/06/27 00:41:34;;;;;;;18.08;16.15;;;22.00;83.20;;;;;;5067465;28;20037;-88
2021/06/27 00:44:00;;;;;;;19.13;17.13;;;22.00;83.20;;;;;;5073973;28;20024;-88
2021/06/27 00:46:26;;;;;;;18.60;16.70;;;22.00;83.50;;;;;;5077595;28;20028;-88
2021/06/27 00:48:51;;;;;;;20.15;17.25;;;22.00;83.60;;;;;;5063964;28;20103;-89
2021/06/27 00:51:17;;;;;;;18.60;16.73;;;22.00;83.30;;;;;;5071851;28;20038;-88
2021/06/27 00:53:43;;;;;;;19.70;17.23;;;21.90;83.20;;;;;;5041224;28;20024;-88
2021/06/27 00:56:10;;;;;;;19.17;16.90;;;21.90;83.60;;;;;;5057766;28;20035;-89
2021/06/27 00:58:36;;;;;;;18.48;16.38;;;21.90;83.80;;;;;;5094675;28;20048;-89
2021/06/27 01:01:17;;;;;;;18.27;16.38;;;21.90;84.90;;;;;;5065676;28;20040;-89
2021/06/27 01:03:43;;;;;;;19.50;17.50;;;21.80;84.10;;;;;;5054603;28;20023;-88
2021/06/27 01:06:08;;;;;;;18.25;16.38;;;21.80;84.40;;;;;;5040894;28;20025;-89
2021/06/27 01:08:34;;;;;;;20.73;18.35;;;21.80;84.30;;;;;;5050841;28;20442;-89
2021/06/27 01:11:00;;;;;;;20.10;17.15;;;21.80;84.30;;;;;;5061858;28;20081;-89
2021/06/27 01:13:25;;;;;;;19.50;17.50;;;21.70;84.30;;;;;;5058298;28;20413;-88
2021/06/27 01:15:52;;;;;;;20.23;18.13;;;21.70;84.40;;;;;;5058969;28;20023;-89
2021/06/27 01:18:18;;;;;;;20.08;17.98;;;21.70;84.70;;;;;;5080685;28;20028;-88
2021/06/27 01:20:44;;;;;;;20.45;18.35;;;21.70;85.10;;;;;;5071091;28;20043;-89
2021/06/27 01:23:15;;;;;;;21.17;18.90;;;21.70;85.40;;;;;;5087295;28;20020;-88
2021/06/27 01:25:44;;;;;;;20.58;18.38;;;21.70;84.90;;;;;;5093162;28;20016;-89
2021/06/27 01:28:11;;;;;;;22.25;19.77;;;21.60;85.20;;;;;;5094130;28;20373;-88
2021/06/27 01:30:37;;;;;;;20.38;18.27;;;21.60;85.10;;;;;;5056407;28;20031;-88
2021/06/27 01:33:07;;;;;;;21.08;18.88;;;21.60;85.40;;;;;;5060109;28;20024;-89
2021/06/27 01:35:34;;;;;;;22.02;19.70;;;21.60;85.60;;;;;;5093725;28;20028;-88
2021/06/27 01:38:01;;;;;;;22.23;19.88;;;21.50;85.60;;;;;;5085958;28;20477;-89
2021/06/27 01:40:30;;;;;;;23.83;21.25;;;21.50;85.70;;;;;;5055017;28;20047;-88
2021/06/27 01:43:18;;;;;;;23.23;19.80;;;21.50;85.80;;;;;;5076631;28;20028;-88
2021/06/27 01:46:02;;;;;;;23.67;21.05;;;21.40;86.30;;;;;;5089582;28;20024;-87
2021/06/27 01:48:30;;;;;;;24.70;21.55;;;21.40;86.40;;;;;;5090028;28;20503;-88
2021/06/27 01:50:57;;;;;;;23.33;20.90;;;21.40;86.50;;;;;;5076635;28;20110;-88
2021/06/27 01:53:30;;;;;;;24.30;21.67;;;21.40;86.60;;;;;;5070552;28;20475;-89
2021/06/27 01:56:07;;;;;;;23.90;21.40;;;21.30;86.70;;;;;;5076791;28;20028;-89
2021/06/27 01:58:41;;;;;;;24.33;21.73;;;21.30;87.00;;;;;;5065756;28;20052;-88
2021/06/27 02:01:11;;;;;;;26.98;23.25;;;21.30;87.40;;;;;;5093057;28;20483;-87
2021/06/27 02:03:37;;;;;;;25.92;23.23;;;21.30;87.30;;;;;;5076516;28;20022;-88
2021/06/27 02:06:03;;;;;;;28.02;23.25;;;21.20;87.20;;;;;;5085424;28;20050;-89
2021/06/27 02:08:35;;;;;;;25.88;22.75;;;21.30;87.40;;;;;;5093803;28;20016;-89
2021/06/27 02:11:02;;;;;;;25.25;22.52;;;21.20;87.40;;;;;;5087164;28;20436;-90
2021/06/27 02:13:28;;;;;;;25.85;22.98;;;21.20;87.80;;;;;;5079106;28;20077;-86
2021/06/27 02:15:54;;;;;;;25.83;22.98;;;21.20;87.80;;;;;;5044941;28;20032;-88
2021/06/27 02:18:35;;;;;;;26.55;22.92;;;21.10;87.90;;;;;;5069901;28;20115;-89
2021/06/27 02:21:04;;;;;;;28.90;24.25;;;21.10;88.20;;;;;;5073637;28;20071;-88
2021/06/27 02:23:30;;;;;;;26.40;23.50;;;21.10;88.10;;;;;;5066525;28;20111;-88
2021/06/27 02:25:57;;;;;;;26.05;23.25;;;21.00;88.00;;;;;;5109494;28;20477;-88
2021/06/27 02:28:22;;;;;;;26.27;23.48;;;21.00;88.30;;;;;;5063972;28;20060;-88
2021/06/27 02:30:49;;;;;;;27.10;23.27;;;21.00;88.40;;;;;;5071142;28;20066;-88
2021/06/27 02:33:15;;;;;;;29.02;24.45;;;21.00;88.80;;;;;;5065510;28;20047;-87
2021/06/27 02:35:41;;;;;;;27.40;24.40;;;21.00;89.10;;;;;;5060871;28;20484;-88
2021/06/27 02:38:07;;;;;;;30.67;24.83;;;21.00;89.00;;;;;;5093765;28;20027;-87
2021/06/27 02:40:33;;;;;;;28.60;24.20;;;21.00;89.10;;;;;;5090686;28;20158;-89
2021/06/27 02:42:59;;;;;;;27.05;23.90;;;20.90;89.10;;;;;;5055353;28;20516;-87
2021/06/27 02:45:24;;;;;;;27.92;24.33;;;20.90;89.00;;;;;;5085669;28;20055;-88
2021/06/27 02:47:50;;;;;;;26.35;22.83;;;20.90;89.20;;;;;;5055799;28;20114;-88
2021/06/27 02:50:17;;;;;;;27.60;24.25;;;20.90;89.40;;;;;;5063557;28;20056;-88
2021/06/27 02:52:45;;;;;;;28.00;24.95;;;20.80;89.30;;;;;;5090834;28;20028;-88
2021/06/27 02:55:13;;;;;;;29.35;25.95;;;20.80;90.00;;;;;;5084514;28;20029;-88
2021/06/27 03:00:14;;;;;;;;;;;20.80;89.90;;;;;;5092468;28;20477;-86
2021/06/27 03:02:52;;;;;;;28.52;25.27;;;20.80;90.10;;;;;;5075952;28;19912;-86
2021/06/27 03:05:18;;;;;;;27.67;24.67;;;20.70;90.00;;;;;;5043062;28;20022;-88
2021/06/27 03:07:44;;;;;;;28.55;24.52;;;20.70;90.00;;;;;;5037752;28;20028;-86
2021/06/27 03:10:13;;;;;;;30.13;26.00;;;20.70;90.10;;;;;;5089563;28;20024;-86
2021/06/27 03:12:40;;;;;;;30.58;26.63;;;20.70;90.10;;;;;;5075106;28;20016;-86
2021/06/27 03:15:06;;;;;;;29.17;25.83;;;20.70;90.20;;;;;;5063958;28;20032;-87
2021/06/27 03:17:32;;;;;;;29.77;25.23;;;20.70;90.20;;;;;;5095981;28;20031;-87
2021/06/27 03:19:58;;;;;;;29.30;25.40;;;20.60;90.30;;;;;;5076018;28;20024;-87
2021/06/27 03:22:24;;;;;;;29.33;25.92;;;20.60;90.40;;;;;;5059029;28;20031;-87
2021/06/27 03:24:49;;;;;;;30.33;27.05;;;20.60;90.40;;;;;;5073018;28;20027;-86
2021/06/27 03:27:15;;;;;;;29.27;26.13;;;20.60;90.40;;;;;;5058902;28;20090;-87
2021/06/27 03:29:41;;;;;;;28.83;25.73;;;20.60;90.50;;;;;;5076067;28;20016;-86
2021/06/27 03:32:07;;;;;;;28.88;25.45;;;20.50;90.60;;;;;;5063963;28;20031;-86
2021/06/27 03:34:32;;;;;;;30.42;26.88;;;20.50;90.70;;;;;;5067971;28;20389;-86
2021/06/27 03:36:58;;;;;;;30.10;24.92;;;20.50;90.70;;;;;;5058421;28;20029;-86
2021/06/27 03:39:24;;;;;;;31.52;26.95;;;20.50;90.70;;;;;;5067935;28;20031;-87
2021/06/27 03:41:53;;;;;;;30.55;25.30;;;20.50;90.70;;;;;;5061656;28;20492;-86
2021/06/27 03:44:19;;;;;;;30.88;27.50;;;20.50;90.80;;;;;;5083563;28;20020;-86
2021/06/27 03:46:45;;;;;;;32.72;26.67;;;20.50;90.80;;;;;;5095961;28;20030;-86
2021/06/27 03:49:11;;;;;;;30.65;26.23;;;20.50;90.90;;;;;;5108341;28;20028;-86
2021/06/27 03:51:38;;;;;;;31.30;27.90;;;20.50;90.80;;;;;;5070155;28;20080;-86
2021/06/27 03:54:04;;;;;;;35.08;27.23;;;20.40;90.80;;;;;;5099655;28;20051;-86
2021/06/27 03:56:30;;;;;;;29.73;26.45;;;20.40;90.90;;;;;;5075061;28;20020;-86
2021/06/27 03:58:56;;;;;;;30.80;26.48;;;20.40;90.90;;;;;;5058293;28;20048;-86
2021/06/27 04:01:21;;;;;;;30.73;26.23;;;20.40;91.10;;;;;;5058245;28;20024;-86
2021/06/27 04:03:47;;;;;;;31.00;27.60;;;20.40;91.00;;;;;;5058442;28;20115;-86
2021/06/27 04:06:13;;;;;;;33.67;27.48;;;20.30;91.10;;;;;;5090895;28;20048;-86
2021/06/27 04:08:39;;;;;;;31.10;26.98;;;20.30;91.10;;;;;;5088398;28;20021;-86
2021/06/27 04:11:05;;;;;;;31.42;26.70;;;20.30;91.20;;;;;;5089244;28;20026;-86
2021/06/27 04:13:32;;;;;;;30.67;25.50;;;20.30;91.30;;;;;;5061089;28;20032;-86
2021/06/27 04:15:59;;;;;;;28.67;25.58;;;20.30;91.30;;;;;;5090594;28;20027;-86
2021/06/27 04:18:26;;;;;;;29.60;26.13;;;20.30;91.30;;;;;;5084411;28;20031;-86
2021/06/27 04:20:54;;;;;;;31.75;26.77;;;20.30;91.30;;;;;;5088070;28;20035;-86
2021/06/27 04:23:20;;;;;;;30.48;24.63;;;20.30;91.30;;;;;;5078681;28;20031;-86
2021/06/27 04:25:46;;;;;;;28.35;25.25;;;20.30;91.30;;;;;;5089577;28;20016;-86
2021/06/27 04:28:11;;;;;;;30.15;25.92;;;20.30;91.30;;;;;;5092288;28;20477;-86
2021/06/27 04:30:38;;;;;;;27.85;24.77;;;20.30;91.40;;;;;;5061631;28;20056;-86
2021/06/27 04:33:08;;;;;;;29.90;25.63;;;20.30;91.40;;;;;;5078006;28;20091;-86
2021/06/27 04:35:36;;;;;;;29.77;22.92;;;20.30;91.40;;;;;;5077989;28;20024;-86
2021/06/27 04:38:06;;;;;;;28.05;23.65;;;20.30;91.40;;;;;;5078582;28;20024;-86
2021/06/27 04:40:33;;;;;;;28.70;24.20;;;20.30;91.50;;;;;;5097012;28;20016;-85
2021/06/27 04:42:58;;;;;;;27.90;23.92;;;20.30;91.40;;;;;;5065039;28;20107;-86
2021/06/27 04:45:24;;;;;;;28.92;24.52;;;20.30;91.40;;;;;;5081455;28;20058;-86
2021/06/27 04:47:50;;;;;;;28.38;25.20;;;20.40;91.50;;;;;;5069460;28;20045;-86
2021/06/27 04:50:16;;;;;;;29.35;24.40;;;20.30;91.40;;;;;;5055702;28;20047;-86
2021/06/27 04:52:42;;;;;;;28.20;24.70;;;20.40;91.40;;;;;;5098129;28;20138;-86
2021/06/27 04:55:08;;;;;;;31.27;24.67;;;20.40;91.40;;;;;;5073000;28;20054;-86
2021/06/27 04:57:35;;;;;;;29.05;24.02;;;20.40;91.40;;;;;;5091753;28;20020;-86
2021/06/27 05:00:03;;;;;;;27.80;23.27;;;20.30;91.70;;;;;;5057419;28;20087;-85
2021/06/27 05:02:28;;;;;;;26.92;24.00;;;20.40;91.40;;;;;;5090556;28;20469;-86
2021/06/27 05:04:54;;;;;;;28.40;24.33;;;20.40;91.40;;;;;;5041795;28;20158;-86
2021/06/27 05:07:20;;;;;;;27.15;23.10;;;20.40;91.50;;;;;;5044085;28;20081;-86
2021/06/27 05:09:45;;;;;;;25.48;22.10;;;20.40;91.40;;;;;;5077340;28;20020;-86
2021/06/27 05:12:11;;;;;;;26.10;22.70;;;20.40;91.40;;;;;;5060842;28;20484;-86
2021/06/27 05:14:37;;;;;;;25.55;22.33;;;20.40;91.40;;;;;;5045100;28;20024;-86
2021/06/27 05:17:02;;;;;;;26.88;23.20;;;20.40;91.70;;;;;;5073689;28;20028;-86
2021/06/27 05:19:28;;;;;;;27.15;23.23;;;20.40;91.40;;;;;;5040511;28;20394;-86
2021/06/27 05:21:54;;;;;;;25.10;21.88;;;20.40;91.60;;;;;;5074389;28;20040;-86
2021/06/27 05:24:19;;;;;;;25.75;21.50;;;20.40;91.30;;;;;;5043052;28;20488;-86
2021/06/27 05:26:46;;;;;;;25.00;22.02;;;20.40;91.40;;;;;;5074859;28;20031;-86
2021/06/27 05:29:12;;;;;;;25.60;22.23;;;20.40;91.40;;;;;;5042587;28;20547;-86
2021/06/27 05:31:38;;;;;;;26.63;22.85;;;20.40;91.50;;;;;;5045828;28;20037;-87
2021/06/27 05:34:04;;;;;;;25.75;23.05;;;20.40;91.60;;;;;;5080887;28;20488;-86
2021/06/27 05:36:37;;;;;;;25.45;21.85;;;20.40;91.50;;;;;;5082240;28;20118;-86
2021/06/27 05:39:10;;;;;;;27.63;24.10;;;20.40;91.40;;;;;;5082502;28;20046;-87
2021/06/27 05:41:38;;;;;;;26.42;23.23;;;20.40;91.40;;;;;;5098035;28;20088;-87
2021/06/27 05:44:05;;;;;;;27.35;22.98;;;20.40;91.40;;;;;;5092478;28;20488;-86
2021/06/27 05:46:32;;;;;;;27.05;22.75;;;20.40;91.40;;;;;;5061160;28;20020;-86
2021/06/27 05:48:58;;;;;;;24.58;21.80;;;20.40;91.30;;;;;;5080107;28;20034;-86
2021/06/27 05:51:25;;;;;;;24.75;22.00;;;20.40;91.30;;;;;;5099596;28;20019;-85
2021/06/27 05:53:51;;;;;;;24.90;22.13;;;20.40;91.20;;;;;;5097415;28;20034;-87
2021/06/27 05:56:18;;;;;;;25.10;21.50;;;20.40;91.20;;;;;;5063886;28;20083;-86
2021/06/27 05:58:45;;;;;;;27.55;22.40;;;20.40;91.20;;;;;;5070370;28;20027;-86
2021/06/27 06:01:13;;;;;;;23.83;20.10;;;20.50;91.30;;;;;;5090680;28;20158;-87
2021/06/27 06:03:39;;;;;;;26.35;21.75;;;20.50;91.30;;;;;;5088085;28;20118;-86
2021/06/27 06:06:10;;;;;;;23.92;20.45;;;20.50;91.30;;;;;;5058502;28;20059;-86
2021/06/27 06:08:41;;;;;;;23.42;20.83;;;20.50;91.20;;;;;;5081131;28;20024;-87
2021/06/27 06:11:10;;;;;;;23.30;20.45;;;20.50;91.20;;;;;;5081440;28;20028;-87
2021/06/27 06:13:36;;;;;;;22.15;18.90;;;20.50;91.20;;;;;;5080690;28;20118;-86
2021/06/27 06:16:03;;;;;;;25.80;21.20;;;20.60;91.20;;;;;;5080812;28;20063;-86
2021/06/27 06:18:29;;;;;;;23.55;20.77;;;20.60;91.20;;;;;;5075287;28;20559;-86
2021/06/27 06:20:55;;;;;;;24.63;19.40;;;20.60;91.20;;;;;;5077136;28;20489;-86
2021/06/27 06:23:21;;;;;;;23.15;20.08;;;20.60;91.20;;;;;;5094918;28;20024;-86
2021/06/27 06:25:47;;;;;;;23.13;20.48;;;20.60;91.20;;;;;;5064123;28;20045;-87
2021/06/27 06:28:12;;;;;;;23.20;20.48;;;20.70;91.20;;;;;;5079212;28;20028;-87
2021/06/27 06:30:38;;;;;;;22.73;19.38;;;20.70;91.20;;;;;;5076274;28;20539;-87
2021/06/27 06:33:04;;;;;;;22.15;19.73;;;20.70;91.20;;;;;;5076629;28;20042;-89
2021/06/27 06:35:30;;;;;;;21.73;19.30;;;20.70;91.30;;;;;;5094407;28;20052;-88
2021/06/27 06:37:56;;;;;;;23.25;19.67;;;20.70;91.30;;;;;;5040017;28;20048;-88
2021/06/27 06:40:21;;;;;;;19.70;17.60;;;20.70;91.30;;;;;;5026655;28;20044;-86
2021/06/27 06:42:47;;;;;;;21.67;18.75;;;20.80;91.30;;;;;;5039731;28;20033;-86
2021/06/27 06:45:12;;;;;;;22.00;19.60;;;20.80;91.30;;;;;;5069391;28;20020;-86
2021/06/27 06:47:38;;;;;;;20.77;18.30;;;20.80;91.20;;;;;;5063043;28;20030;-86
2021/06/27 06:50:05;;;;;;;21.25;18.95;;;20.90;91.20;;;;;;5066479;28;20081;-86
2021/06/27 06:52:30;;;;;;;21.00;18.20;;;20.90;91.20;;;;;;5056384;28;20119;-86
2021/06/27 06:54:56;;;;;;;20.63;18.42;;;21.00;91.10;;;;;;5066082;28;20061;-86
2021/06/27 06:57:21;;;;;;;21.90;18.88;;;21.00;91.20;;;;;;5062615;28;20536;-86
2021/06/27 06:59:47;;;;;;;21.52;18.80;;;21.00;91.20;;;;;;5078749;28;20054;-86
2021/06/27 07:02:13;;;;;;;20.67;17.98;;;21.10;91.10;;;;;;5062384;28;20027;-86
2021/06/27 07:04:41;;;;;;;20.58;18.08;;;21.10;91.10;;;;;;5081614;28;20405;-86
2021/06/27 07:07:07;;;;;;;20.42;18.15;;;21.20;91.00;;;;;;5086692;28;20028;-87
2021/06/27 07:09:32;;;;;;;25.35;18.42;;;21.30;90.90;;;;;;5058957;28;20058;-87
2021/06/27 07:11:58;;;;;;;21.27;18.33;;;21.30;90.80;;;;;;5038591;28;20029;-88
2021/06/27 07:14:24;;;;;;;19.92;17.73;;;21.30;90.70;;;;;;5039223;28;20025;-87
2021/06/27 07:16:49;;;;;;;21.52;18.58;;;21.40;90.70;;;;;;5040885;28;20041;-87
2021/06/27 07:19:16;;;;;;;18.98;16.75;;;21.40;90.70;;;;;;5070779;28;20023;-86
2021/06/27 07:21:43;;;;;;;22.55;19.58;;;21.50;90.80;;;;;;5061751;28;20027;-87
2021/06/27 07:24:09;;;;;;;20.60;17.58;;;21.50;90.60;;;;;;5059207;28;20115;-86
2021/06/27 07:26:35;;;;;;;20.60;18.33;;;21.50;90.50;;;;;;5041093;28;20106;-86
2021/06/27 07:29:00;;;;;;;19.55;17.45;;;21.60;90.50;;;;;;5057133;28;20039;-86
2021/06/27 07:31:26;;;;;;;20.08;17.77;;;21.60;90.40;;;;;;5041830;28;20032;-86
2021/06/27 07:33:52;;;;;;;18.48;16.23;;;21.60;90.40;;;;;;5069363;28;20052;-86
2021/06/27 07:36:17;;;;;;;19.02;16.60;;;21.60;90.40;;;;;;5051494;28;20111;-86
2021/06/27 07:38:43;;;;;;;20.65;18.50;;;21.70;90.30;;;;;;5061903;28;20118;-85
2021/06/27 07:41:09;;;;;;;22.35;17.08;;;21.70;90.40;;;;;;5069534;28;20020;-85
2021/06/27 07:43:35;;;;;;;20.20;16.35;;;21.70;90.30;;;;;;5058591;28;20035;-86
2021/06/27 07:46:01;;;;;;;18.38;16.42;;;21.80;90.30;;;;;;5060463;28;20038;-86
2021/06/27 07:48:26;;;;;;;17.05;15.20;;;21.80;90.20;;;;;;5061365;28;20025;-87
2021/06/27 07:50:52;;;;;;;19.05;16.90;;;21.80;90.30;;;;;;5069227;28;20437;-87
2021/06/27 07:53:17;;;;;;;18.20;16.25;;;21.90;90.30;;;;;;5072716;28;20063;-87
2021/06/27 07:55:43;;;;;;;18.25;16.30;;;21.90;90.30;;;;;;5046338;28;20059;-88
2021/06/27 07:58:09;;;;;;;20.05;17.90;;;22.00;90.40;;;;;;5043419;28;20033;-87
2021/06/27 08:00:35;;;;;;;17.25;15.23;;;22.00;90.50;;;;;;5042964;28;20052;-88
2021/06/27 08:03:01;;;;;;;18.02;15.75;;;22.10;90.40;;;;;;5061868;28;20082;-88
2021/06/27 08:05:27;;;;;;;15.98;13.63;;;22.10;90.40;;;;;;5055777;28;20032;-80
2021/06/27 08:07:53;;;;;;;18.75;15.70;;;22.20;90.50;;;;;;5056009;28;20473;-81
2021/06/27 08:10:19;;;;;;;18.25;16.30;;;22.30;90.50;;;;;;5039635;28;20029;-81
2021/06/27 08:12:45;;;;;;;19.80;17.45;;;22.30;90.40;;;;;;5043214;28;20035;-80
2021/06/27 08:15:18;;;;;;;18.63;16.63;;;22.40;90.40;;;;;;5012477;28;20025;-81
2021/06/27 08:17:49;;;;;;;17.92;16.02;;;22.40;90.30;;;;;;5031222;28;20052;-81
2021/06/27 08:20:16;;;;;;;17.27;15.48;;;22.40;90.30;;;;;;4987368;28;20134;-81
2021/06/27 08:22:42;;;;;;;16.75;14.93;;;22.50;90.30;;;;;;5056749;28;20472;-81
2021/06/27 08:25:08;;;;;;;19.55;16.88;;;22.60;90.20;;;;;;5053326;28;20023;-81
2021/06/27 08:27:34;;;;;;;18.65;16.33;;;22.60;90.20;;;;;;5061867;28;20028;-81
2021/06/27 08:30:00;;;;;;;16.33;14.60;;;22.60;90.20;;;;;;5055115;28;20056;-81
2021/06/27 08:32:26;;;;;;;17.73;14.77;;;22.70;90.10;;;;;;5081252;28;20503;-81
2021/06/27 08:34:52;;;;;;;16.38;14.65;;;22.80;90.10;;;;;;5039992;28;20389;-81
2021/06/27 08:37:18;;;;;;;18.48;16.60;;;22.80;90.00;;;;;;5056575;28;20039;-81
2021/06/27 08:39:44;;;;;;;21.80;19.60;;;22.90;89.90;;;;;;5070538;28;20033;-80
2021/06/27 08:42:10;;;;;;;16.42;14.65;;;22.90;89.60;;;;;;5072655;28;20024;-81
2021/06/27 08:44:35;;;;;;;16.63;14.60;;;22.90;89.50;;;;;;5054553;28;20027;-81
2021/06/27 08:47:03;;;;;;;16.23;14.25;;;23.00;89.60;;;;;;5074419;28;20012;-80
2021/06/27 08:49:29;;;;;;;16.60;14.48;;;23.00;89.80;;;;;;5039340;28;20037;-80
2021/06/27 08:51:59;;;;;;;16.92;15.13;;;23.00;90.00;;;;;;5056265;28;20024;-81
2021/06/27 08:54:24;;;;;;;20.25;15.48;;;23.10;89.80;;;;;;5001170;28;20125;-81
2021/06/27 08:56:50;;;;;;;15.82;14.15;;;23.10;89.50;;;;;;5020870;28;20121;-80
2021/06/27 08:59:15;;;;;;;17.58;15.70;;;23.20;89.50;;;;;;5036455;22;20074;-80
2021/06/27 09:02:03;;;;;;;18.63;15.35;;;23.20;89.40;;;;;;5093898;28;20106;-80
2021/06/27 09:04:31;;;;;;;16.05;14.45;;;23.20;89.40;;;;;;5079482;28;20028;-86
2021/06/27 09:07:30;;;;;;;18.10;16.17;;;23.20;89.40;;;;;;5108638;28;20486;-87
2021/06/27 09:10:21;;;;;;;15.73;14.13;;;23.30;89.20;;;;;;5060735;28;20435;-87
2021/06/27 09:12:51;;;;;;;;;;;23.30;89.00;;;;;;5078327;28;20102;-87
2021/06/27 09:15:43;;;;;;;16.60;14.90;;;23.30;89.20;;;;;;5115058;28;19904;-87
2021/06/27 09:18:15;;;;;;;17.48;15.25;;;23.40;89.00;;;;;;5070359;28;20032;-88
2021/06/27 09:21:06;;;;;;;16.52;14.82;;;23.40;88.90;;;;;;5087012;28;20024;-87
2021/06/27 09:23:43;;;;;;;15.65;13.98;;;23.40;88.70;;;;;;5073310;28;20024;-81
2021/06/27 09:26:10;;;;;;;14.88;13.38;;;23.50;88.80;;;;;;5059722;28;20418;-81
2021/06/27 09:28:47;;;;;;;15.15;13.55;;;23.50;88.70;;;;;;5070386;28;20033;-81
2021/06/27 09:31:31;;;;;;;15.38;13.88;;;23.60;88.70;;;;;;5084786;28;20461;-81
2021/06/27 09:34:05;;;;;;;15.85;13.43;;;23.60;88.20;;;;;;5093839;28;20465;-81
2021/06/27 09:36:32;;;;;;;15.73;13.63;;;23.70;88.00;;;;;;5077749;28;20027;-82
2021/06/27 09:39:05;;;;;;;14.60;13.10;;;23.70;88.00;;;;;;5087477;28;20230;-83
2021/06/27 09:41:35;;;;;;;14.43;12.93;;;23.80;87.80;;;;;;5093466;28;20389;-81
2021/06/27 09:44:04;;;;;;;15.18;13.57;;;23.90;88.50;;;;;;5093491;28;20012;-81
2021/06/27 09:46:44;;;;;;;14.43;12.93;;;23.90;87.80;;;;;;5075112;28;20020;-80
2021/06/27 09:49:14;;;;;;;14.87;12.70;;;24.00;87.60;;;;;;5066743;28;20070;-81
2021/06/27 09:51:46;;;;;;;13.57;12.10;;;24.00;87.40;;;;;;5069999;28;20638;-80
2021/06/27 09:54:14;;;;;;;13.25;11.85;;;24.10;87.40;;;;;;5093197;28;20031;-81
2021/06/27 09:56:40;;;;;;;12.85;11.55;;;24.10;87.10;;;;;;5093198;28;20055;-81
2021/06/27 09:59:08;;;;;;;13.07;11.77;;;24.20;87.00;;;;;;5078230;28;20051;-81
2021/06/27 10:01:35;;;;;;;12.80;11.50;;;24.20;86.80;;;;;;5088243;28;20017;-82
2021/06/27 10:04:04;;;;;;;13.00;11.70;;;24.20;86.50;;;;;;5097611;28;20466;-82
2021/06/27 10:06:31;;;;;;;13.32;11.23;;;24.30;86.50;;;;;;5093521;28;20027;-81
2021/06/27 10:09:16;;;;;;;11.70;10.50;;;24.30;87.30;;;;;;5084744;28;20020;-80
2021/06/27 10:12:07;;;;;;;13.43;11.85;;;24.40;86.60;;;;;;5072949;28;20173;-80
2021/06/27 10:14:41;;;;;;;12.90;11.50;;;24.40;85.80;;;;;;5078435;28;20487;-80
2021/06/27 10:17:07;;;;;;;13.38;11.35;;;24.50;85.60;;;;;;5073780;28;20035;-80
2021/06/27 10:19:34;;;;;;;12.85;11.55;;;24.50;85.20;;;;;;5082572;28;20101;-80
2021/06/27 10:22:02;;;;;;;13.38;11.98;;;24.50;85.10;;;;;;5049433;28;20028;-80
2021/06/27 10:24:29;;;;;;;11.52;9.93;;;24.60;84.90;;;;;;5070111;28;20023;-80
2021/06/27 10:26:55;;;;;;;12.30;10.48;;;24.60;84.90;;;;;;5048126;28;20074;-81
2021/06/27 10:29:22;;;;;;;11.57;10.38;;;24.60;85.10;;;;;;5075989;28;20426;-80
2021/06/27 10:31:51;;;;;;;12.02;10.82;;;24.60;84.60;;;;;;5072233;28;20029;-80
2021/06/27 10:34:18;;;;;;;12.10;10.90;;;24.70;85.10;;;;;;5068245;28;20157;-80
2021/06/27 10:36:46;;;;;;;10.82;9.80;;;24.70;84.60;;;;;;5077205;28;20056;-80
2021/06/27 10:39:14;;;;;;;10.93;9.82;;;24.80;84.50;;;;;;5074481;28;20028;-80
2021/06/27 10:41:55;;;;;;;12.40;10.68;;;24.80;84.30;;;;;;5070522;28;20020;-80
2021/06/27 10:44:26;;;;;;;11.68;9.75;;;24.90;84.50;;;;;;5073951;28;20462;-81
2021/06/27 10:46:55;;;;;;;11.88;10.13;;;24.90;84.60;;;;;;5074065;28;20382;-81
2021/06/27 10:49:35;;;;;;;11.30;10.10;;;24.90;84.20;;;;;;5092200;28;20020;-81
2021/06/27 10:52:05;;;;;;;10.48;9.25;;;25.00;83.80;;;;;;5092165;28;20031;-80
2021/06/27 10:54:36;;;;;;;10.85;9.68;;;25.00;83.90;;;;;;5073758;28;20452;-80
2021/06/27 10:57:16;;;;;;;;;;;25.10;84.00;;;;;;5092654;28;20021;-81
2021/06/27 10:59:44;;;;;;;9.40;8.40;;;25.10;84.00;;;;;;5079619;28;19923;-80
2021/06/27 11:02:10;;;;;;;9.35;8.32;;;25.10;84.00;;;;;;5077790;28;20028;-80
2021/06/27 11:04:36;;;;;;;10.15;9.07;;;25.20;83.90;;;;;;5059920;28;20028;-80
2021/06/27 11:07:01;;;;;;;9.20;8.13;;;25.30;83.70;;;;;;5057106;28;20020;-80
2021/06/27 11:09:28;;;;;;;11.82;8.90;;;25.30;83.80;;;;;;5057330;28;20025;-80
2021/06/27 11:11:57;;;;;;;10.15;8.55;;;25.30;83.90;;;;;;5071519;28;20103;-80
2021/06/27 11:14:23;;;;;;;10.68;8.18;;;25.40;83.90;;;;;;5092035;28;20476;-80
2021/06/27 11:16:59;;;;;;;9.57;7.88;;;25.50;83.80;;;;;;5073849;28;20036;-80
2021/06/27 11:19:43;;;;;;;8.98;8.07;;;25.50;83.50;;;;;;5073854;28;20153;-80
2021/06/27 11:22:20;;;;;;;10.10;8.18;;;25.60;83.60;;;;;;5045740;28;20040;-80
2021/06/27 11:24:47;;;;;;;8.52;7.70;;;25.70;83.30;;;;;;5057746;28;20028;-80
2021/06/27 11:27:36;;;;;;;8.13;7.32;;;25.70;83.00;;;;;;5052354;28;20025;-80
2021/06/27 11:30:26;;;;;;;8.00;7.20;;;25.80;82.40;;;;;;5057646;28;20021;-80
2021/06/27 11:32:52;;;;;;;7.13;6.43;;;25.80;82.20;;;;;;5089775;28;20021;-80
2021/06/27 11:35:35;;;;;;;7.30;6.60;;;25.90;81.50;;;;;;5068945;28;20028;-80
2021/06/27 11:38:02;;;;;;;9.07;6.95;;;25.90;80.30;;;;;;5075413;28;20021;-80
2021/06/27 11:40:41;;;;;;;6.90;6.20;;;26.00;79.80;;;;;;5052924;28;20032;-80
2021/06/27 11:43:07;;;;;;;8.07;7.03;;;26.10;80.40;;;;;;5080767;28;20074;-79
2021/06/27 11:45:32;;;;;;;7.65;6.47;;;26.10;79.60;;;;;;5040777;28;20025;-79
2021/06/27 11:48:00;;;;;;;6.28;5.68;;;26.20;78.30;;;;;;5071345;28;20489;-80
2021/06/27 11:50:28;;;;;;;6.05;5.45;;;26.20;77.20;;;;;;5074010;28;20615;-80
2021/06/27 11:52:56;;;;;;;7.13;5.93;;;26.30;77.40;;;;;;5068515;28;20158;-80
2021/06/27 11:55:33;;;;;;;6.80;6.07;;;26.30;77.40;;;;;;5072226;28;20047;-79
2021/06/27 11:58:00;;;;;;;6.10;5.50;;;26.40;76.60;;;;;;5077015;28;20032;-80
2021/06/27 12:00:34;;;;;;;7.18;6.25;;;26.40;75.60;;;;;;5069649;28;20039;-79
2021/06/27 12:03:11;;;;;;;6.03;5.43;;;26.50;72.70;;;;;;5066579;28;20103;-79
2021/06/27 12:05:38;;;;;;;6.43;5.10;;;26.50;73.60;;;;;;5076069;28;20081;-81
2021/06/27 12:08:09;;;;;;;5.10;4.60;;;26.60;72.60;;;;;;5073006;28;20028;-79
2021/06/27 12:10:36;;;;;;;6.45;4.68;;;26.70;72.10;;;;;;5076841;28;20028;-79
2021/06/27 12:13:09;;;;;;;5.25;4.75;;;26.70;71.80;;;;;;5095286;28;20016;-80
2021/06/27 12:15:40;;;;;;;5.90;4.97;;;26.70;71.80;;;;;;5094969;28;20060;-80
2021/06/27 12:18:12;;;;;;;5.80;4.93;;;26.80;72.00;;;;;;5056975;28;20061;-81
2021/06/27 12:20:48;;;;;;;7.82;4.90;;;26.90;70.90;;;;;;5069609;28;20531;-79
2021/06/27 12:23:26;;;;;;;5.80;5.00;;;27.00;71.00;;;;;;5076228;28;20067;-80
2021/06/27 12:25:56;;;;;;;5.70;5.00;;;27.00;70.60;;;;;;5076642;28;20084;-79
2021/06/27 12:28:28;;;;;;;;;;;27.10;70.20;;;;;;5095431;28;20048;-79
2021/06/27 12:30:56;;;;;;;6.75;5.22;;;27.20;69.60;;;;;;5090224;28;19950;-80
2021/06/27 12:33:37;;;;;;;5.78;5.18;;;27.20;68.90;;;;;;5088364;28;20487;-87
2021/06/27 12:36:25;;;;;;;5.63;4.97;;;27.20;69.20;;;;;;5068847;28;20024;-87
2021/06/27 12:38:55;;;;;;;5.60;4.78;;;27.30;69.10;;;;;;5063843;28;20020;-87